In Rescue
 
Open Full Screen Window  High Contrast Mode
Wind Gusting 00 knots
08
November 29, 2022 9:17 AM CST
Present Weather: Snow
Weather Information
Wind Direction
  330 °
Wind Speed
  08 kt (9 mph)
Wind Gust
  00 kt (0 mph)
Altimeter
29.69 in
Visibility
1/2 SM
Temperature
-04° C
25° F
Dewpoint
-05° C
23° F
Humidity
93%
1hr Rain Fall
00.01 in.
24hr Rain Fall
00.02 in.
Sky Condition
Overcast @ 500 ft
IFR

METAR KGYL 291517Z AUTO 33008KT 1/2SM SN OVC005 M04/M05 A2969 RMK AO2 T10381047 P0001

FAA Disclaimer: The data displayed is for advisory purposes only and is not to be used for flight planning or operations.